METAR Data
IDs: Format: Raw Decoded Include TAF

Data at: 1627 UTC 03 Dec 2021

KCEC 031556Z AUTO 00000KT 1/4SM FG VV002 06/06 A3012 RMK AO2 SLP201 T00610056

KCEC 031603Z 0316/0412 VRB03KT 1/4SM FG OVC004
  FM032100 23006KT 2SM BR BKN005 BKN250
  FM040300 12003KT 4SM BR SCT005 BKN250
  FM040600 16004KT 1/2SM FG OVC005